sensor_id;sensor_type;location;lat;lon;timestamp;temperature;humidity
18153;DHT22;9202;51.578;7.734;2023-07-20T00:01:49;16.90;99.90
18153;DHT22;9202;51.578;7.734;2023-07-20T00:03:52;16.80;99.90
18153;DHT22;9202;51.578;7.734;2023-07-20T00:05:57;16.90;99.90
18153;DHT22;9202;51.578;7.734;2023-07-20T00:08:00;16.80;99.90
18153;DHT22;9202;51.578;7.734;2023-07-20T00:10:03;16.80;99.90
18153;DHT22;9202;51.578;7.734;2023-07-20T00:12:07;16.80;99.90
18153;DHT22;9202;51.578;7.734;2023-07-20T00:14:10;16.80;99.90
18153;DHT22;9202;51.578;7.734;2023-07-20T00:16:13;16.80;99.90
18153;DHT22;9202;51.578;7.734;2023-07-20T00:18:15;16.70;99.90
18153;DHT22;9202;51.578;7.734;2023-07-20T00:20:18;16.80;99.90
18153;DHT22;9202;51.578;7.734;2023-07-20T00:22:21;16.80;99.90
18153;DHT22;9202;51.578;7.734;2023-07-20T00:24:23;16.70;99.90
18153;DHT22;9202;51.578;7.734;2023-07-20T00:26:26;16.80;99.90
18153;DHT22;9202;51.578;7.734;2023-07-20T00:28:29;16.80;99.90
18153;DHT22;9202;51.578;7.734;2023-07-20T00:30:31;16.70;99.90
18153;DHT22;9202;51.578;7.734;2023-07-20T00:32:34;16.80;99.90
18153;DHT22;9202;51.578;7.734;2023-07-20T00:34:37;16.80;99.90
18153;DHT22;9202;51.578;7.734;2023-07-20T00:36:39;16.90;99.90
18153;DHT22;9202;51.578;7.734;2023-07-20T00:38:43;16.90;99.90
18153;DHT22;9202;51.578;7.734;2023-07-20T00:40:46;16.90;99.90
18153;DHT22;9202;51.578;7.734;2023-07-20T00:42:48;17.00;99.90
18153;DHT22;9202;51.578;7.734;2023-07-20T00:44:53;17.00;99.90
18153;DHT22;9202;51.578;7.734;2023-07-20T00:46:57;17.00;99.90
18153;DHT22;9202;51.578;7.734;2023-07-20T00:49:01;16.90;99.90
18153;DHT22;9202;51.578;7.734;2023-07-20T00:51:04;16.90;99.90
18153;DHT22;9202;51.578;7.734;2023-07-20T00:53:06;17.00;99.90
18153;DHT22;9202;51.578;7.734;2023-07-20T00:55:09;16.90;99.90
18153;DHT22;9202;51.578;7.734;2023-07-20T00:57:13;16.90;99.90
18153;DHT22;9202;51.578;7.734;2023-07-20T00:59:16;16.90;99.90
18153;DHT22;9202;51.578;7.734;2023-07-20T01:01:19;17.00;99.90
18153;DHT22;9202;51.578;7.734;2023-07-20T01:03:22;16.90;99.90
18153;DHT22;9202;51.578;7.734;2023-07-20T01:07:42;16.90;99.90
18153;DHT22;9202;51.578;7.734;2023-07-20T01:09:48;16.80;99.90
18153;DHT22;9202;51.578;7.734;2023-07-20T01:11:52;16.80;99.90
18153;DHT22;9202;51.578;7.734;2023-07-20T01:13:55;16.80;99.90
18153;DHT22;9202;51.578;7.734;2023-07-20T01:16:00;16.80;99.90
18153;DHT22;9202;51.578;7.734;2023-07-20T01:18:04;16.90;99.90
18153;DHT22;9202;51.578;7.734;2023-07-20T01:20:07;16.90;99.90
18153;DHT22;9202;51.578;7.734;2023-07-20T01:22:17;16.80;99.90
18153;DHT22;9202;51.578;7.734;2023-07-20T01:27:40;16.90;99.90
18153;DHT22;9202;51.578;7.734;2023-07-20T01:29:51;17.00;99.90
18153;DHT22;9202;51.578;7.734;2023-07-20T01:31:54;16.90;99.90
18153;DHT22;9202;51.578;7.734;2023-07-20T01:33:58;16.80;99.90
18153;DHT22;9202;51.578;7.734;2023-07-20T01:36:01;16.80;99.90
18153;DHT22;9202;51.578;7.734;2023-07-20T01:38:04;16.80;99.90
18153;DHT22;9202;51.578;7.734;2023-07-20T01:40:08;16.80;99.90
18153;DHT22;9202;51.578;7.734;2023-07-20T01:42:12;16.80;99.90
18153;DHT22;9202;51.578;7.734;2023-07-20T01:44:14;16.80;99.90
18153;DHT22;9202;51.578;7.734;2023-07-20T01:46:17;16.80;99.90
18153;DHT22;9202;51.578;7.734;2023-07-20T01:48:19;16.80;99.90
18153;DHT22;9202;51.578;7.734;2023-07-20T01:50:22;16.80;99.90
18153;DHT22;9202;51.578;7.734;2023-07-20T01:52:25;16.80;99.90
18153;DHT22;9202;51.578;7.734;2023-07-20T01:54:28;16.80;99.90
18153;DHT22;9202;51.578;7.734;2023-07-20T01:56:30;16.70;99.90
18153;DHT22;9202;51.578;7.734;2023-07-20T01:58:33;16.70;99.90
18153;DHT22;9202;51.578;7.734;2023-07-20T02:00:37;16.80;99.90
18153;DHT22;9202;51.578;7.734;2023-07-20T02:02:39;16.80;99.90
18153;DHT22;9202;51.578;7.734;2023-07-20T02:04:44;16.70;99.90
18153;DHT22;9202;51.578;7.734;2023-07-20T02:06:47;16.80;99.90
18153;DHT22;9202;51.578;7.734;2023-07-20T02:08:50;16.60;99.90
18153;DHT22;9202;51.578;7.734;2023-07-20T02:10:53;16.70;99.90
18153;DHT22;9202;51.578;7.734;2023-07-20T02:12:55;16.60;99.90
18153;DHT22;9202;51.578;7.734;2023-07-20T02:14:58;16.60;99.90
18153;DHT22;9202;51.578;7.734;2023-07-20T02:17:01;16.70;99.90
18153;DHT22;9202;51.578;7.734;2023-07-20T02:19:03;16.60;99.90
18153;DHT22;9202;51.578;7.734;2023-07-20T02:21:08;16.60;99.90
18153;DHT22;9202;51.578;7.734;2023-07-20T02:23:10;16.70;99.90
18153;DHT22;9202;51.578;7.734;2023-07-20T02:25:13;16.70;99.90
18153;DHT22;9202;51.578;7.734;2023-07-20T02:27:16;16.60;99.90
18153;DHT22;9202;51.578;7.734;2023-07-20T02:29:19;16.60;99.90
18153;DHT22;9202;51.578;7.734;2023-07-20T02:31:22;16.60;99.90
18153;DHT22;9202;51.578;7.734;2023-07-20T02:33:25;16.60;99.90
18153;DHT22;9202;51.578;7.734;2023-07-20T02:35:28;16.60;99.90
18153;DHT22;9202;51.578;7.734;2023-07-20T02:37:31;16.60;99.90
18153;DHT22;9202;51.578;7.734;2023-07-20T02:39:34;16.60;99.90
18153;DHT22;9202;51.578;7.734;2023-07-20T02:41:37;16.60;99.90
18153;DHT22;9202;51.578;7.734;2023-07-20T02:43:39;16.70;99.90
18153;DHT22;9202;51.578;7.734;2023-07-20T02:45:42;16.70;99.90
18153;DHT22;9202;51.578;7.734;2023-07-20T02:47:46;16.70;99.90
18153;DHT22;9202;51.578;7.734;2023-07-20T02:49:48;16.60;99.90
18153;DHT22;9202;51.578;7.734;2023-07-20T02:51:51;16.60;99.90
18153;DHT22;9202;51.578;7.734;2023-07-20T02:53:54;16.60;99.90
18153;DHT22;9202;51.578;7.734;2023-07-20T02:55:56;16.60;99.90
18153;DHT22;9202;51.578;7.734;2023-07-20T02:57:59;16.60;99.90
18153;DHT22;9202;51.578;7.734;2023-07-20T03:00:02;16.60;99.90
18153;DHT22;9202;51.578;7.734;2023-07-20T03:02:06;16.50;99.90
18153;DHT22;9202;51.578;7.734;2023-07-20T03:04:11;16.50;99.90
18153;DHT22;9202;51.578;7.734;2023-07-20T03:06:14;16.40;99.90
18153;DHT22;9202;51.578;7.734;2023-07-20T03:08:17;16.40;99.90
18153;DHT22;9202;51.578;7.734;2023-07-20T03:24:11;16.30;99.90
18153;DHT22;9202;51.578;7.734;2023-07-20T03:26:14;16.10;99.90
18153;DHT22;9202;51.578;7.734;2023-07-20T03:28:18;16.10;99.90
18153;DHT22;9202;51.578;7.734;2023-07-20T03:30:21;16.10;99.90
18153;DHT22;9202;51.578;7.734;2023-07-20T03:32:25;16.10;99.90
18153;DHT22;9202;51.578;7.734;2023-07-20T03:34:27;16.00;99.90
18153;DHT22;9202;51.578;7.734;2023-07-20T03:36:30;15.90;99.90
18153;DHT22;9202;51.578;7.734;2023-07-20T03:38:33;15.80;99.90
18153;DHT22;9202;51.578;7.734;2023-07-20T03:40:36;15.80;99.90
18153;DHT22;9202;51.578;7.734;2023-07-20T03:42:39;15.60;99.90
18153;DHT22;9202;51.578;7.734;2023-07-20T03:44:41;15.50;99.90
18153;DHT22;9202;51.578;7.734;2023-07-20T03:46:44;15.50;99.90
18153;DHT22;9202;51.578;7.734;2023-07-20T03:48:47;15.30;99.90
18153;DHT22;9202;51.578;7.734;2023-07-20T03:50:51;15.20;99.90
18153;DHT22;9202;51.578;7.734;2023-07-20T03:52:54;15.00;99.90
18153;DHT22;9202;51.578;7.734;2023-07-20T03:54:57;14.90;99.90
18153;DHT22;9202;51.578;7.734;2023-07-20T03:56:59;14.80;99.90
18153;DHT22;9202;51.578;7.734;2023-07-20T03:59:03;14.80;99.90
18153;DHT22;9202;51.578;7.734;2023-07-20T04:01:05;14.70;99.90
18153;DHT22;9202;51.578;7.734;2023-07-20T04:03:09;14.70;99.90
18153;DHT22;9202;51.578;7.734;2023-07-20T04:05:11;14.70;99.90
18153;DHT22;9202;51.578;7.734;2023-07-20T04:07:14;14.70;99.90
18153;DHT22;9202;51.578;7.734;2023-07-20T04:09:17;14.70;99.90
18153;DHT22;9202;51.578;7.734;2023-07-20T04:11:20;14.70;99.90
18153;DHT22;9202;51.578;7.734;2023-07-20T04:13:22;14.70;99.90
18153;DHT22;9202;51.578;7.734;2023-07-20T04:15:25;14.70;99.90
18153;DHT22;9202;51.578;7.734;2023-07-20T04:17:27;14.70;99.90
18153;DHT22;9202;51.578;7.734;2023-07-20T04:19:30;14.70;99.90
18153;DHT22;9202;51.578;7.734;2023-07-20T04:21:33;14.70;99.90
18153;DHT22;9202;51.578;7.734;2023-07-20T04:23:36;14.70;99.90
18153;DHT22;9202;51.578;7.734;2023-07-20T04:25:40;14.80;99.90
18153;DHT22;9202;51.578;7.734;2023-07-20T04:27:45;14.70;99.90
18153;DHT22;9202;51.578;7.734;2023-07-20T04:29:48;14.70;99.90
18153;DHT22;9202;51.578;7.734;2023-07-20T04:31:50;13.60;99.90
18153;DHT22;9202;51.578;7.734;2023-07-20T04:33:53;14.80;99.90
18153;DHT22;9202;51.578;7.734;2023-07-20T04:35:56;14.80;99.90
18153;DHT22;9202;51.578;7.734;2023-07-20T04:38:00;14.80;99.90
18153;DHT22;9202;51.578;7.734;2023-07-20T04:40:04;14.80;99.90
18153;DHT22;9202;51.578;7.734;2023-07-20T04:42:07;14.90;99.90
18153;DHT22;9202;51.578;7.734;2023-07-20T04:44:10;14.90;99.90
18153;DHT22;9202;51.578;7.734;2023-07-20T04:46:13;14.90;99.90
18153;DHT22;9202;51.578;7.734;2023-07-20T04:48:16;14.90;99.90
18153;DHT22;9202;51.578;7.734;2023-07-20T04:50:21;14.90;99.90
18153;DHT22;9202;51.578;7.734;2023-07-20T04:52:26;15.00;99.90
18153;DHT22;9202;51.578;7.734;2023-07-20T04:54:31;15.00;99.90
18153;DHT22;9202;51.578;7.734;2023-07-20T04:56:34;15.10;99.90
18153;DHT22;9202;51.578;7.734;2023-07-20T04:58:38;15.10;99.90
18153;DHT22;9202;51.578;7.734;2023-07-20T05:00:41;15.20;99.90
18153;DHT22;9202;51.578;7.734;2023-07-20T05:02:44;15.20;99.90
18153;DHT22;9202;51.578;7.734;2023-07-20T05:04:47;15.20;99.90
18153;DHT22;9202;51.578;7.734;2023-07-20T05:06:50;15.10;99.90
18153;DHT22;9202;51.578;7.734;2023-07-20T05:08:52;15.20;99.90
18153;DHT22;9202;51.578;7.734;2023-07-20T05:10:56;15.20;99.90
18153;DHT22;9202;51.578;7.734;2023-07-20T05:12:59;15.20;99.90
18153;DHT22;9202;51.578;7.734;2023-07-20T05:15:01;15.20;99.90
18153;DHT22;9202;51.578;7.734;2023-07-20T05:17:05;15.20;99.90
18153;DHT22;9202;51.578;7.734;2023-07-20T05:19:07;15.20;99.90
18153;DHT22;9202;51.578;7.734;2023-07-20T05:21:10;15.20;99.90
18153;DHT22;9202;51.578;7.734;2023-07-20T05:23:13;15.20;99.90
18153;DHT22;9202;51.578;7.734;2023-07-20T05:25:16;15.20;99.90
18153;DHT22;9202;51.578;7.734;2023-07-20T05:27:20;15.20;99.90
18153;DHT22;9202;51.578;7.734;2023-07-20T05:29:23;15.10;99.90
18153;DHT22;9202;51.578;7.734;2023-07-20T05:31:25;15.10;99.90
18153;DHT22;9202;51.578;7.734;2023-07-20T05:33:28;15.10;99.90
18153;DHT22;9202;51.578;7.734;2023-07-20T05:35:31;15.10;99.90
18153;DHT22;9202;51.578;7.734;2023-07-20T05:37:34;15.10;99.90
18153;DHT22;9202;51.578;7.734;2023-07-20T05:39:36;15.10;99.90
18153;DHT22;9202;51.578;7.734;2023-07-20T05:41:39;15.20;99.90
18153;DHT22;9202;51.578;7.734;2023-07-20T05:43:42;15.30;99.90
18153;DHT22;9202;51.578;7.734;2023-07-20T05:45:45;15.30;99.90
18153;DHT22;9202;51.578;7.734;2023-07-20T05:47:49;15.40;99.90
18153;DHT22;9202;51.578;7.734;2023-07-20T05:49:52;15.40;99.90
18153;DHT22;9202;51.578;7.734;2023-07-20T05:51:55;15.40;99.90
18153;DHT22;9202;51.578;7.734;2023-07-20T05:53:57;15.40;99.90
18153;DHT22;9202;51.578;7.734;2023-07-20T05:56:00;15.40;99.90
18153;DHT22;9202;51.578;7.734;2023-07-20T05:58:02;15.40;99.90
18153;DHT22;9202;51.578;7.734;2023-07-20T06:00:09;15.40;99.90
18153;DHT22;9202;51.578;7.734;2023-07-20T06:02:14;15.40;99.90
18153;DHT22;9202;51.578;7.734;2023-07-20T06:04:17;15.40;99.90
18153;DHT22;9202;51.578;7.734;2023-07-20T06:06:19;15.40;99.90
18153;DHT22;9202;51.578;7.734;2023-07-20T06:08:23;15.40;99.90
18153;DHT22;9202;51.578;7.734;2023-07-20T06:10:25;15.40;99.90
18153;DHT22;9202;51.578;7.734;2023-07-20T06:12:28;15.50;99.90
18153;DHT22;9202;51.578;7.734;2023-07-20T06:14:31;15.60;99.90
18153;DHT22;9202;51.578;7.734;2023-07-20T06:16:34;15.40;99.90
18153;DHT22;9202;51.578;7.734;2023-07-20T06:18:36;15.40;99.90
18153;DHT22;9202;51.578;7.734;2023-07-20T06:20:39;15.40;99.90
18153;DHT22;9202;51.578;7.734;2023-07-20T06:22:44;15.40;99.90
18153;DHT22;9202;51.578;7.734;2023-07-20T06:24:47;15.50;99.90
18153;DHT22;9202;51.578;7.734;2023-07-20T06:26:50;15.60;99.90
18153;DHT22;9202;51.578;7.734;2023-07-20T06:28:52;15.50;99.90
18153;DHT22;9202;51.578;7.734;2023-07-20T06:30:59;15.50;99.90
18153;DHT22;9202;51.578;7.734;2023-07-20T06:33:02;15.60;99.90
18153;DHT22;9202;51.578;7.734;2023-07-20T06:35:05;15.60;99.90
18153;DHT22;9202;51.578;7.734;2023-07-20T06:37:08;15.60;99.90
18153;DHT22;9202;51.578;7.734;2023-07-20T06:39:12;15.50;99.90
18153;DHT22;9202;51.578;7.734;2023-07-20T06:41:18;15.50;99.90
18153;DHT22;9202;51.578;7.734;2023-07-20T06:43:26;15.50;99.90
18153;DHT22;9202;51.578;7.734;2023-07-20T06:45:30;15.50;99.90
18153;DHT22;9202;51.578;7.734;2023-07-20T06:47:33;15.50;99.90
18153;DHT22;9202;51.578;7.734;2023-07-20T06:49:37;15.60;99.90
18153;DHT22;9202;51.578;7.734;2023-07-20T06:51:40;15.40;99.90
18153;DHT22;9202;51.578;7.734;2023-07-20T06:53:43;15.30;99.90
18153;DHT22;9202;51.578;7.734;2023-07-20T06:55:45;15.40;99.90
18153;DHT22;9202;51.578;7.734;2023-07-20T06:57:52;15.40;99.90
18153;DHT22;9202;51.578;7.734;2023-07-20T06:59:56;15.40;99.90
18153;DHT22;9202;51.578;7.734;2023-07-20T07:01:59;15.40;99.90
18153;DHT22;9202;51.578;7.734;2023-07-20T07:04:02;15.40;99.90
18153;DHT22;9202;51.578;7.734;2023-07-20T07:06:07;15.50;99.90
18153;DHT22;9202;51.578;7.734;2023-07-20T07:08:09;15.50;99.90
18153;DHT22;9202;51.578;7.734;2023-07-20T07:10:12;15.60;99.90
18153;DHT22;9202;51.578;7.734;2023-07-20T07:12:15;15.60;99.90
18153;DHT22;9202;51.578;7.734;2023-07-20T07:14:19;15.60;99.90
18153;DHT22;9202;51.578;7.734;2023-07-20T07:16:22;15.70;99.90
18153;DHT22;9202;51.578;7.734;2023-07-20T07:18:25;15.80;99.90
18153;DHT22;9202;51.578;7.734;2023-07-20T07:20:28;15.90;99.90
18153;DHT22;9202;51.578;7.734;2023-07-20T07:22:31;15.90;99.90
18153;DHT22;9202;51.578;7.734;2023-07-20T07:24:33;15.90;99.90
18153;DHT22;9202;51.578;7.734;2023-07-20T07:26:36;15.80;99.90
18153;DHT22;9202;51.578;7.734;2023-07-20T07:28:39;15.70;99.90
18153;DHT22;9202;51.578;7.734;2023-07-20T07:30:41;15.60;99.90
18153;DHT22;9202;51.578;7.734;2023-07-20T07:32:44;15.50;99.90
18153;DHT22;9202;51.578;7.734;2023-07-20T07:34:47;15.50;99.90
18153;DHT22;9202;51.578;7.734;2023-07-20T07:36:50;15.40;99.90
18153;DHT22;9202;51.578;7.734;2023-07-20T07:38:53;15.40;99.90
18153;DHT22;9202;51.578;7.734;2023-07-20T07:40:57;15.40;99.90
18153;DHT22;9202;51.578;7.734;2023-07-20T07:45:16;15.50;99.90
18153;DHT22;9202;51.578;7.734;2023-07-20T07:47:19;15.70;99.90
18153;DHT22;9202;51.578;7.734;2023-07-20T07:49:22;15.90;99.90
18153;DHT22;9202;51.578;7.734;2023-07-20T07:51:25;16.10;99.90
18153;DHT22;9202;51.578;7.734;2023-07-20T07:53:29;16.30;99.90
18153;DHT22;9202;51.578;7.734;2023-07-20T07:55:31;16.40;99.90
18153;DHT22;9202;51.578;7.734;2023-07-20T07:57:34;16.30;99.90
18153;DHT22;9202;51.578;7.734;2023-07-20T07:59:37;16.20;99.90
18153;DHT22;9202;51.578;7.734;2023-07-20T08:01:39;16.10;99.90
18153;DHT22;9202;51.578;7.734;2023-07-20T08:03:42;16.20;99.90
18153;DHT22;9202;51.578;7.734;2023-07-20T08:05:45;16.10;99.90
18153;DHT22;9202;51.578;7.734;2023-07-20T08:07:51;16.20;99.90
18153;DHT22;9202;51.578;7.734;2023-07-20T08:09:54;16.50;99.90
18153;DHT22;9202;51.578;7.734;2023-07-20T08:11:57;16.50;99.90
18153;DHT22;9202;51.578;7.734;2023-07-20T08:14:00;16.40;99.90
18153;DHT22;9202;51.578;7.734;2023-07-20T08:16:03;16.50;99.90
18153;DHT22;9202;51.578;7.734;2023-07-20T08:18:06;16.50;99.90
18153;DHT22;9202;51.578;7.734;2023-07-20T08:20:14;16.50;99.90
18153;DHT22;9202;51.578;7.734;2023-07-20T08:22:31;16.50;99.90
18153;DHT22;9202;51.578;7.734;2023-07-20T08:24:38;16.80;99.90
18153;DHT22;9202;51.578;7.734;2023-07-20T08:26:41;16.90;99.90
18153;DHT22;9202;51.578;7.734;2023-07-20T08:28:51;17.00;99.90
18153;DHT22;9202;51.578;7.734;2023-07-20T08:30:58;17.10;99.90
18153;DHT22;9202;51.578;7.734;2023-07-20T08:33:01;17.10;99.90
18153;DHT22;9202;51.578;7.734;2023-07-20T08:35:07;17.20;99.90
18153;DHT22;9202;51.578;7.734;2023-07-20T08:37:10;17.30;99.90
18153;DHT22;9202;51.578;7.734;2023-07-20T08:39:13;17.20;99.90
18153;DHT22;9202;51.578;7.734;2023-07-20T08:41:17;17.30;99.90
18153;DHT22;9202;51.578;7.734;2023-07-20T08:43:21;17.20;99.90
18153;DHT22;9202;51.578;7.734;2023-07-20T08:45:26;17.30;99.90
18153;DHT22;9202;51.578;7.734;2023-07-20T08:47:30;17.60;99.90
18153;DHT22;9202;51.578;7.734;2023-07-20T08:49:33;17.90;99.90
18153;DHT22;9202;51.578;7.734;2023-07-20T08:51:36;18.00;99.90
18153;DHT22;9202;51.578;7.734;2023-07-20T08:53:42;17.90;99.90
18153;DHT22;9202;51.578;7.734;2023-07-20T08:55:46;17.60;99.90
18153;DHT22;9202;51.578;7.734;2023-07-20T08:57:51;17.20;99.90
18153;DHT22;9202;51.578;7.734;2023-07-20T08:59:55;16.90;99.90
18153;DHT22;9202;51.578;7.734;2023-07-20T09:01:57;16.60;99.90
18153;DHT22;9202;51.578;7.734;2023-07-20T09:04:00;16.40;99.90
18153;DHT22;9202;51.578;7.734;2023-07-20T09:06:05;16.60;99.90
18153;DHT22;9202;51.578;7.734;2023-07-20T09:08:08;17.10;99.90
18153;DHT22;9202;51.578;7.734;2023-07-20T09:10:11;17.40;99.90
18153;DHT22;9202;51.578;7.734;2023-07-20T09:12:16;17.40;99.90
18153;DHT22;9202;51.578;7.734;2023-07-20T09:14:19;17.10;99.90
18153;DHT22;9202;51.578;7.734;2023-07-20T09:16:21;16.90;99.90
18153;DHT22;9202;51.578;7.734;2023-07-20T09:18:31;16.60;99.90
18153;DHT22;9202;51.578;7.734;2023-07-20T09:20:39;16.60;99.90
18153;DHT22;9202;51.578;7.734;2023-07-20T09:22:46;16.90;99.90
18153;DHT22;9202;51.578;7.734;2023-07-20T09:24:51;17.20;99.90
18153;DHT22;9202;51.578;7.734;2023-07-20T09:26:55;17.50;99.90
18153;DHT22;9202;51.578;7.734;2023-07-20T09:28:58;17.80;99.90
18153;DHT22;9202;51.578;7.734;2023-07-20T09:31:04;18.10;99.90
18153;DHT22;9202;51.578;7.734;2023-07-20T09:33:21;18.40;99.90
18153;DHT22;9202;51.578;7.734;2023-07-20T09:35:33;18.70;99.90
18153;DHT22;9202;51.578;7.734;2023-07-20T09:37:41;18.50;99.90
18153;DHT22;9202;51.578;7.734;2023-07-20T09:39:48;18.10;99.90
18153;DHT22;9202;51.578;7.734;2023-07-20T09:42:00;17.80;99.90
18153;DHT22;9202;51.578;7.734;2023-07-20T09:44:08;17.40;99.90
18153;DHT22;9202;51.578;7.734;2023-07-20T09:48:39;17.30;99.90
18153;DHT22;9202;51.578;7.734;2023-07-20T09:50:48;17.80;99.90
18153;DHT22;9202;51.578;7.734;2023-07-20T09:52:48;18.10;99.90
18153;DHT22;9202;51.578;7.734;2023-07-20T09:54:53;18.20;99.90
18153;DHT22;9202;51.578;7.734;2023-07-20T09:56:56;18.50;99.90
18153;DHT22;9202;51.578;7.734;2023-07-20T09:58:59;18.70;99.90
18153;DHT22;9202;51.578;7.734;2023-07-20T10:01:02;18.70;99.90
18153;DHT22;9202;51.578;7.734;2023-07-20T10:03:06;18.70;99.90
18153;DHT22;9202;51.578;7.734;2023-07-20T10:05:10;18.70;99.90
18153;DHT22;9202;51.578;7.734;2023-07-20T10:07:13;18.90;99.90
18153;DHT22;9202;51.578;7.734;2023-07-20T10:09:17;19.00;99.90
18153;DHT22;9202;51.578;7.734;2023-07-20T10:11:21;19.10;99.90
18153;DHT22;9202;51.578;7.734;2023-07-20T10:13:26;19.20;99.90
18153;DHT22;9202;51.578;7.734;2023-07-20T10:15:30;19.30;99.90
18153;DHT22;9202;51.578;7.734;2023-07-20T10:17:34;19.40;99.90
18153;DHT22;9202;51.578;7.734;2023-07-20T10:19:40;19.50;99.90
18153;DHT22;9202;51.578;7.734;2023-07-20T10:21:46;19.80;99.90
18153;DHT22;9202;51.578;7.734;2023-07-20T10:23:51;19.90;99.90
18153;DHT22;9202;51.578;7.734;2023-07-20T10:25:54;20.10;99.90
18153;DHT22;9202;51.578;7.734;2023-07-20T10:27:56;20.10;99.90
18153;DHT22;9202;51.578;7.734;2023-07-20T10:29:59;19.90;99.90
18153;DHT22;9202;51.578;7.734;2023-07-20T10:32:04;19.90;99.90
18153;DHT22;9202;51.578;7.734;2023-07-20T10:34:09;20.00;99.90
18153;DHT22;9202;51.578;7.734;2023-07-20T10:36:13;20.20;99.90
18153;DHT22;9202;51.578;7.734;2023-07-20T10:38:15;20.30;99.90
18153;DHT22;9202;51.578;7.734;2023-07-20T10:40:25;20.20;99.90
18153;DHT22;9202;51.578;7.734;2023-07-20T10:42:28;19.90;99.90
18153;DHT22;9202;51.578;7.734;2023-07-20T10:44:33;19.70;99.90
18153;DHT22;9202;51.578;7.734;2023-07-20T10:46:42;19.40;99.90
18153;DHT22;9202;51.578;7.734;2023-07-20T10:49:02;19.10;99.90
18153;DHT22;9202;51.578;7.734;2023-07-20T10:51:09;18.80;99.90
18153;DHT22;9202;51.578;7.734;2023-07-20T10:53:15;18.60;99.90
18153;DHT22;9202;51.578;7.734;2023-07-20T10:55:19;18.40;99.90
18153;DHT22;9202;51.578;7.734;2023-07-20T10:57:24;18.80;99.90
18153;DHT22;9202;51.578;7.734;2023-07-20T10:59:36;19.20;99.90
18153;DHT22;9202;51.578;7.734;2023-07-20T11:01:40;19.50;99.90
18153;DHT22;9202;51.578;7.734;2023-07-20T11:03:48;19.60;99.90
18153;DHT22;9202;51.578;7.734;2023-07-20T11:05:49;19.50;99.90
18153;DHT22;9202;51.578;7.734;2023-07-20T11:07:55;19.50;99.90
18153;DHT22;9202;51.578;7.734;2023-07-20T11:09:57;19.30;99.90
18153;DHT22;9202;51.578;7.734;2023-07-20T11:12:09;19.10;99.90
18153;DHT22;9202;51.578;7.734;2023-07-20T11:14:20;19.10;99.90
18153;DHT22;9202;51.578;7.734;2023-07-20T11:16:37;19.20;99.90
18153;DHT22;9202;51.578;7.734;2023-07-20T11:18:43;19.30;99.90
18153;DHT22;9202;51.578;7.734;2023-07-20T11:20:55;19.70;99.90
18153;DHT22;9202;51.578;7.734;2023-07-20T11:22:58;20.10;99.90
18153;DHT22;9202;51.578;7.734;2023-07-20T11:25:01;20.30;99.90
18153;DHT22;9202;51.578;7.734;2023-07-20T11:27:04;20.50;99.90
18153;DHT22;9202;51.578;7.734;2023-07-20T11:29:06;20.70;99.90
18153;DHT22;9202;51.578;7.734;2023-07-20T11:31:13;20.80;99.90
18153;DHT22;9202;51.578;7.734;2023-07-20T11:33:15;20.80;99.90
18153;DHT22;9202;51.578;7.734;2023-07-20T11:35:18;20.70;99.90
18153;DHT22;9202;51.578;7.734;2023-07-20T11:37:21;20.80;99.90
18153;DHT22;9202;51.578;7.734;2023-07-20T11:39:23;20.90;99.90
18153;DHT22;9202;51.578;7.734;2023-07-20T11:41:27;21.10;99.90
18153;DHT22;9202;51.578;7.734;2023-07-20T11:43:29;21.20;99.90
18153;DHT22;9202;51.578;7.734;2023-07-20T11:45:32;21.30;99.90
18153;DHT22;9202;51.578;7.734;2023-07-20T11:47:35;21.20;99.90
18153;DHT22;9202;51.578;7.734;2023-07-20T11:49:40;21.30;99.90
18153;DHT22;9202;51.578;7.734;2023-07-20T11:51:43;21.20;99.90
18153;DHT22;9202;51.578;7.734;2023-07-20T11:53:45;21.30;99.90
18153;DHT22;9202;51.578;7.734;2023-07-20T11:55:50;21.40;99.90
18153;DHT22;9202;51.578;7.734;2023-07-20T11:58:02;21.30;99.90
18153;DHT22;9202;51.578;7.734;2023-07-20T12:00:06;21.30;99.90
18153;DHT22;9202;51.578;7.734;2023-07-20T12:02:11;21.50;99.90
18153;DHT22;9202;51.578;7.734;2023-07-20T12:04:14;21.70;99.90
18153;DHT22;9202;51.578;7.734;2023-07-20T12:06:17;21.60;99.90
18153;DHT22;9202;51.578;7.734;2023-07-20T12:08:20;21.70;99.90
18153;DHT22;9202;51.578;7.734;2023-07-20T12:10:26;21.70;99.90
18153;DHT22;9202;51.578;7.734;2023-07-20T12:12:31;21.50;99.90
18153;DHT22;9202;51.578;7.734;2023-07-20T12:14:34;21.00;99.90
18153;DHT22;9202;51.578;7.734;2023-07-20T12:16:36;20.80;99.90
18153;DHT22;9202;51.578;7.734;2023-07-20T12:18:40;20.60;99.90
18153;DHT22;9202;51.578;7.734;2023-07-20T12:23:13;20.40;99.90
18153;DHT22;9202;51.578;7.734;2023-07-20T12:25:16;20.70;99.90
18153;DHT22;9202;51.578;7.734;2023-07-20T12:27:21;20.90;99.90
18153;DHT22;9202;51.578;7.734;2023-07-20T12:29:24;21.30;99.90
18153;DHT22;9202;51.578;7.734;2023-07-20T12:31:28;21.60;99.90
18153;DHT22;9202;51.578;7.734;2023-07-20T12:33:31;21.60;99.90
18153;DHT22;9202;51.578;7.734;2023-07-20T12:35:34;21.40;99.90
18153;DHT22;9202;51.578;7.734;2023-07-20T12:37:37;21.10;99.90
18153;DHT22;9202;51.578;7.734;2023-07-20T12:39:40;21.00;99.90
18153;DHT22;9202;51.578;7.734;2023-07-20T12:41:44;20.90;99.90
18153;DHT22;9202;51.578;7.734;2023-07-20T12:43:47;21.00;99.90
18153;DHT22;9202;51.578;7.734;2023-07-20T12:45:51;21.00;99.90
18153;DHT22;9202;51.578;7.734;2023-07-20T12:47:56;21.20;99.90
18153;DHT22;9202;51.578;7.734;2023-07-20T12:49:59;21.40;99.90
18153;DHT22;9202;51.578;7.734;2023-07-20T12:52:02;21.50;99.90
18153;DHT22;9202;51.578;7.734;2023-07-20T12:54:05;21.70;99.90
18153;DHT22;9202;51.578;7.734;2023-07-20T12:56:07;21.90;99.90
18153;DHT22;9202;51.578;7.734;2023-07-20T12:58:12;22.00;99.90
18153;DHT22;9202;51.578;7.734;2023-07-20T13:00:16;22.00;99.90
18153;DHT22;9202;51.578;7.734;2023-07-20T13:02:19;22.30;99.90
18153;DHT22;9202;51.578;7.734;2023-07-20T13:04:21;22.20;99.90
18153;DHT22;9202;51.578;7.734;2023-07-20T13:06:24;22.30;99.90
18153;DHT22;9202;51.578;7.734;2023-07-20T13:08:28;22.40;99.90
18153;DHT22;9202;51.578;7.734;2023-07-20T13:10:31;22.40;99.90
18153;DHT22;9202;51.578;7.734;2023-07-20T13:14:50;22.30;99.90
18153;DHT22;9202;51.578;7.734;2023-07-20T13:16:52;22.40;99.90
18153;DHT22;9202;51.578;7.734;2023-07-20T13:18:55;22.40;99.90
18153;DHT22;9202;51.578;7.734;2023-07-20T13:20:58;22.60;99.90
18153;DHT22;9202;51.578;7.734;2023-07-20T13:23:04;22.70;99.90
18153;DHT22;9202;51.578;7.734;2023-07-20T13:25:08;22.60;99.90
18153;DHT22;9202;51.578;7.734;2023-07-20T13:27:11;22.40;99.90
18153;DHT22;9202;51.578;7.734;2023-07-20T13:29:14;22.50;99.90
18153;DHT22;9202;51.578;7.734;2023-07-20T13:31:18;22.60;99.90
18153;DHT22;9202;51.578;7.734;2023-07-20T13:33:23;22.70;99.90
18153;DHT22;9202;51.578;7.734;2023-07-20T13:35:31;22.60;99.90
18153;DHT22;9202;51.578;7.734;2023-07-20T13:37:36;22.60;99.90
18153;DHT22;9202;51.578;7.734;2023-07-20T13:39:41;22.80;99.90
18153;DHT22;9202;51.578;7.734;2023-07-20T13:41:47;22.80;99.90
18153;DHT22;9202;51.578;7.734;2023-07-20T13:43:50;23.10;99.90